Time;durP1;ratioP1;P1;durP2;ratioP2;P2;SDS_P1;SDS_P2;PMS_P1;PMS_P2;Temp;Humidity;BMP_temperature;BMP_pressure;BME280_temperature;BME280_humidity;BME280_pressure;Samples;Min_cycle;Max_cycle;Signal;HPM_P1;HPM_P2
2021/10/05 00:00:00;;;;;;;;;;;;;;;10.83;94.72;96737.00;30001;983;1875;-72
2021/10/05 00:00:30;;;;;;;;;;;;;;;10.83;94.77;96742.41;30001;983;1880;-72
2021/10/05 00:01:02;;;;;;;;;;;;;;;10.82;94.49;96744.31;30001;983;1875;-73
2021/10/05 00:01:33;;;;;;;;;;;;;;;10.82;94.87;96738.91;30001;983;1880;-72
2021/10/05 00:02:04;;;;;;;;;;;;;;;10.82;94.89;96741.59;30001;983;1850;-73
2021/10/05 00:02:35;;;;;;;;;;;;;;;10.82;94.76;96746.22;30001;983;1880;-72
2021/10/05 00:03:06;;;;;;;;;;;;;;;10.82;94.63;96735.38;30001;982;1876;-72
2021/10/05 00:03:37;;;;;;;;;;;;;;;10.81;94.85;96745.44;30001;982;1880;-72
2021/10/05 00:04:08;;;;;;;;;;;;;;;10.81;94.62;96750.03;30001;982;1876;-72
2021/10/05 00:04:39;;;;;;;;;;;;;;;10.79;94.65;96741.41;30001;982;1880;-73
2021/10/05 00:05:09;;;;;;;;;;;;;;;10.80;94.62;96751.16;30001;982;1876;-73
2021/10/05 00:05:41;;;;;;;;;;;;;;;10.80;94.58;96748.44;30001;982;1880;-72
2021/10/05 00:06:11;;;;;;;;;;;;;;;10.80;94.84;96743.00;30001;982;1850;-73
2021/10/05 00:06:42;;;;;;;;;;;;;;;10.80;95.00;96743.00;30001;983;1880;-73
2021/10/05 00:07:13;;;;;;;;;;;;;;;10.80;94.79;96748.44;30001;983;1875;-73
2021/10/05 00:07:44;;;;;;;;;;;;;;;10.81;94.96;96752.75;30001;983;1879;-73
2021/10/05 00:08:15;;;;;;;;;;;;;;;10.79;95.08;96749.53;30001;983;1844;-73
2021/10/05 00:08:45;;;;;;;;;;;;;;;10.79;95.08;96746.81;30001;983;1856;-73
2021/10/05 00:09:16;;;;;;;;;;;;;;;10.80;94.77;96748.44;30001;983;1875;-72
2021/10/05 00:09:47;;;;;;;;;;;;;;;10.81;95.09;96752.75;30001;983;1880;-73
2021/10/05 00:10:18;;;;;;;;;;;;;;;10.80;94.91;96743.81;30001;983;1876;-74
2021/10/05 00:10:48;;;;;;;;;;;;;;;10.78;95.29;96740.59;30001;982;1880;-74
2021/10/05 00:11:19;;;;;;;;;;;;;;;10.77;95.33;96744.41;30001;982;1849;-74
2021/10/05 00:11:50;;;;;;;;;;;;;;;10.77;95.27;96740.88;30001;982;1880;-74
2021/10/05 00:12:21;;;;;;;;;;;;;;;10.75;94.91;96742.00;30001;982;1876;-74
2021/10/05 00:12:52;;;;;;;;;;;;;;;10.75;95.21;96736.56;30001;982;1880;-75
2021/10/05 00:13:23;;;;;;;;;;;;;;;10.75;94.87;96730.31;30001;982;1876;-74
2021/10/05 00:13:54;;;;;;;;;;;;;;;10.75;95.09;96735.75;30001;983;1853;-74
2021/10/05 00:14:25;;;;;;;;;;;;;;;10.75;94.90;96731.13;30001;983;1876;-74
2021/10/05 00:14:56;;;;;;;;;;;;;;;10.73;94.99;96732.56;30001;983;1880;-74
2021/10/05 00:15:27;;;;;;;;;;;;;;;10.72;94.77;96731.75;30001;983;1875;-74
2021/10/05 00:15:58;;;;;;;;;;;;;;;10.71;94.63;96734.75;30001;983;1854;-74
2021/10/05 00:16:29;;;;;;;;;;;;;;;10.69;94.77;96732.34;30001;983;1875;-75
2021/10/05 00:17:00;;;;;;;;;;;;;;;10.69;94.95;96731.53;30001;983;1880;-74
2021/10/05 00:17:31;;;;;;;;;;;;;;;10.69;95.08;96726.91;30002;799;1015;-73
2021/10/05 00:18:02;;;;;;;;;;;;;;;10.68;95.00;96730.72;30001;982;1880;-74
2021/10/05 00:18:33;;;;;;;;;;;;;;;10.68;94.77;96730.72;30001;982;1876;-73
2021/10/05 00:19:04;;;;;;;;;;;;;;;10.68;95.11;96728.03;30001;982;1881;-57
2021/10/05 00:19:35;;;;;;;;;;;;;;;10.68;95.17;96724.50;30001;972;1870;-74
2021/10/05 00:20:08;;;;;;;;;;;;;;;10.68;95.16;96724.50;30001;982;1880;-73
2021/10/05 00:20:38;;;;;;;;;;;;;;;10.69;94.93;96726.13;30001;983;1875;-73
2021/10/05 00:21:09;;;;;;;;;;;;;;;10.68;94.82;96719.88;30001;983;1853;-74
2021/10/05 00:21:40;;;;;;;;;;;;;;;10.68;94.88;96725.31;30001;983;1875;-74
2021/10/05 00:22:11;;;;;;;;;;;;;;;10.66;95.06;96719.38;30001;983;1880;-73
2021/10/05 00:22:42;;;;;;;;;;;;;;;10.68;94.89;96722.59;30001;983;1875;-74
2021/10/05 00:23:13;;;;;;;;;;;;;;;10.67;95.12;96720.97;30001;983;1880;-73
2021/10/05 00:23:44;;;;;;;;;;;;;;;10.68;94.81;96721.78;30001;983;1876;-73
2021/10/05 00:24:14;;;;;;;;;;;;;;;10.68;95.16;96722.59;30001;983;1880;-74
2021/10/05 00:24:45;;;;;;;;;;;;;;;10.69;94.92;96715.25;30001;983;1875;-74
2021/10/05 00:25:16;;;;;;;;;;;;;;;10.68;95.17;96722.59;30001;983;1880;-75
2021/10/05 00:25:47;;;;;;;;;;;;;;;10.68;94.86;96719.88;30001;982;1876;-76
2021/10/05 00:26:18;;;;;;;;;;;;;;;10.69;94.94;96721.50;30001;982;1854;-75
2021/10/05 00:26:49;;;;;;;;;;;;;;;10.69;94.88;96723.41;30001;982;1876;-73
2021/10/05 00:27:19;;;;;;;;;;;;;;;10.69;95.02;96715.25;30001;982;1880;-74
2021/10/05 00:27:50;;;;;;;;;;;;;;;10.69;95.14;96718.78;30001;982;1876;-74
2021/10/05 00:28:21;;;;;;;;;;;;;;;10.70;94.99;96719.59;30001;983;1879;-74
2021/10/05 00:28:52;;;;;;;;;;;;;;;10.70;94.81;96717.69;30001;983;1875;-74
2021/10/05 00:29:23;;;;;;;;;;;;;;;10.69;94.83;96710.63;30001;983;1853;-74
2021/10/05 00:29:54;;;;;;;;;;;;;;;10.70;94.79;96716.87;30001;983;1875;-73
2021/10/05 00:30:24;;;;;;;;;;;;;;;10.68;94.89;96711.75;30001;983;1853;-74
2021/10/05 00:30:55;;;;;;;;;;;;;;;10.69;94.86;96716.06;30001;983;1875;-74
2021/10/05 00:31:26;;;;;;;;;;;;;;;10.69;94.90;96705.22;30001;983;1880;-74
2021/10/05 00:31:57;;;;;;;;;;;;;;;10.69;94.81;96710.63;30001;983;1876;-74
2021/10/05 00:32:28;;;;;;;;;;;;;;;10.69;95.11;96699.78;30001;983;1880;-74
2021/10/05 00:32:59;;;;;;;;;;;;;;;10.68;94.84;96697.38;30001;983;1876;-74
2021/10/05 00:33:29;;;;;;;;;;;;;;;10.67;95.16;96699.28;30001;982;1880;-74
2021/10/05 00:34:01;;;;;;;;;;;;;;;10.66;95.01;96694.94;30001;982;1876;-74
2021/10/05 00:34:32;;;;;;;;;;;;;;;10.68;95.04;96695.47;30001;982;1854;-73
2021/10/05 00:35:04;;;;;;;;;;;;;;;10.67;94.73;96684.91;30001;982;1876;-73
2021/10/05 00:35:35;;;;;;;;;;;;;;;10.68;94.98;96686.50;30001;982;1880;-73
2021/10/05 00:36:07;;;;;;;;;;;;;;;10.68;94.69;96687.31;30001;983;1875;-73
2021/10/05 00:36:38;;;;;;;;;;;;;;;10.67;94.84;96685.72;30001;983;1880;-71
2021/10/05 00:37:09;;;;;;;;;;;;;;;10.68;94.94;96691.94;30001;983;1875;-73
2021/10/05 00:37:39;;;;;;;;;;;;;;;10.68;95.03;96697.38;30001;983;1880;-73
2021/10/05 00:38:10;;;;;;;;;;;;;;;10.68;94.86;96695.47;30001;983;1876;-72
2021/10/05 00:38:41;;;;;;;;;;;;;;;10.69;95.17;96691.66;30001;983;1880;-73
2021/10/05 00:39:12;;;;;;;;;;;;;;;10.70;94.98;96695.97;30001;983;1849;-73
2021/10/05 00:39:43;;;;;;;;;;;;;;;10.71;95.11;96694.88;30001;983;1854;-73
2021/10/05 00:40:13;;;;;;;;;;;;;;;10.71;95.02;96694.06;30001;982;1876;-73
2021/10/05 00:40:44;;;;;;;;;;;;;;;10.70;95.35;96687.81;30001;961;1901;-73
2021/10/05 00:41:15;;;;;;;;;;;;;;;10.71;95.06;96681.28;30001;982;1876;-73
2021/10/05 00:41:46;;;;;;;;;;;;;;;10.72;95.19;96688.34;30001;982;1880;-73
2021/10/05 00:42:17;;;;;;;;;;;;;;;10.72;94.94;96682.09;30001;982;1850;-74
2021/10/05 00:42:48;;;;;;;;;;;;;;;10.73;95.18;96686.44;30001;982;1880;-74
2021/10/05 00:43:19;;;;;;;;;;;;;;;10.73;94.97;96689.94;30001;983;1875;-75
2021/10/05 00:43:50;;;;;;;;;;;;;;;10.74;95.41;96688.03;30001;983;1879;-73
2021/10/05 00:44:28;;;;;;;;;;;;;;;10.74;95.08;96685.31;30001;983;1875;-75
2021/10/05 00:44:59;;;;;;;;;;;;;;;10.72;95.18;96682.91;30001;983;1880;-74
2021/10/05 00:45:29;;;;;;;;;;;;;;;10.73;95.17;96683.72;30001;983;1875;-74
2021/10/05 00:46:00;;;;;;;;;;;;;;;10.72;95.33;96688.34;30001;983;1880;-74
2021/10/05 00:46:33;;;;;;;;;;;;;;;10.72;95.43;96677.47;30001;983;1849;-74
2021/10/05 00:47:09;;;;;;;;;;;;;;;10.71;95.15;96684.00;30001;983;1854;-75
2021/10/05 00:47:40;;;;;;;;;;;;;;;10.71;95.26;96686.72;30001;982;1876;-75
2021/10/05 00:48:10;;;;;;;;;;;;;;;10.69;95.48;96680.78;30001;982;1880;-74
2021/10/05 00:48:41;;;;;;;;;;;;;;;10.70;95.22;96687.81;30001;982;1876;-75
2021/10/05 00:49:12;;;;;;;;;;;;;;;10.69;95.34;96678.06;30001;982;1881;-75
2021/10/05 00:49:45;;;;;;;;;;;;;;;10.69;95.31;96682.69;30001;985;1876;-75
2021/10/05 00:50:16;;;;;;;;;;;;;;;10.69;95.36;96678.06;30001;982;1880;-75
2021/10/05 00:50:47;;;;;;;;;;;;;;;10.70;95.30;96681.59;30001;983;1875;-74
2021/10/05 00:51:18;;;;;;;;;;;;;;;10.68;95.44;96681.88;30001;983;1879;-75
2021/10/05 00:51:49;;;;;;;;;;;;;;;10.69;95.56;96677.28;30001;983;1849;-74
2021/10/05 00:52:22;;;;;;;;;;;;;;;10.68;95.21;96681.88;30001;964;1905;-74
2021/10/05 00:52:53;;;;;;;;;;;;;;;10.69;95.42;96680.78;30001;983;1875;-74
2021/10/05 00:53:24;;;;;;;;;;;;;;;10.69;95.29;96682.69;30001;983;1880;-75
2021/10/05 00:53:55;;;;;;;;;;;;;;;10.68;95.29;96687.31;30001;983;1876;-75
2021/10/05 00:54:27;;;;;;;;;;;;;;;10.69;95.53;96682.69;30001;983;1880;-75
2021/10/05 00:54:58;;;;;;;;;;;;;;;10.70;95.20;96681.59;30001;982;1876;-74
2021/10/05 00:55:29;;;;;;;;;;;;;;;10.69;95.60;96682.69;30001;982;1880;-75
2021/10/05 00:56:01;;;;;;;;;;;;;;;10.70;95.28;96676.16;30001;982;1850;-75
2021/10/05 00:56:32;;;;;;;;;;;;;;;10.69;95.56;96678.06;30001;982;1854;-74
2021/10/05 00:57:03;;;;;;;;;;;;;;;10.70;95.39;96674.25;30001;982;1876;-74
2021/10/05 00:57:34;;;;;;;;;;;;;;;10.69;95.40;96675.38;30001;982;1880;-74
2021/10/05 00:58:05;;;;;;;;;;;;;;;10.70;95.36;96673.44;30001;982;1876;-74
2021/10/05 00:58:37;;;;;;;;;;;;;;;10.69;95.62;96667.22;30001;983;1880;-74
2021/10/05 00:59:08;;;;;;;;;;;;;;;10.70;95.43;96670.75;30001;983;1875;-75
2021/10/05 00:59:39;;;;;;;;;;;;;;;10.71;95.65;96670.44;30001;983;1880;-75
2021/10/05 01:00:10;;;;;;;;;;;;;;;10.72;95.64;96666.62;30001;983;1875;-75
2021/10/05 01:00:41;;;;;;;;;;;;;;;10.72;95.64;96661.19;30001;983;1880;-74
2021/10/05 01:01:12;;;;;;;;;;;;;;;10.72;95.35;96658.50;30001;983;1876;-75
2021/10/05 01:01:43;;;;;;;;;;;;;;;10.71;95.32;96654.16;30001;983;1854;-74
2021/10/05 01:02:14;;;;;;;;;;;;;;;10.69;95.12;96656.38;30001;983;1875;-75
2021/10/05 01:02:46;;;;;;;;;;;;;;;10.67;95.50;96653.16;30001;982;1854;-74
2021/10/05 01:03:16;;;;;;;;;;;;;;;10.66;95.43;96654.25;30001;982;1876;-75
2021/10/05 01:03:48;;;;;;;;;;;;;;;10.67;95.72;96653.16;30001;982;1880;-75
2021/10/05 01:04:19;;;;;;;;;;;;;;;10.68;95.48;96657.47;30001;982;1876;-75
2021/10/05 01:04:50;;;;;;;;;;;;;;;10.68;95.83;96648.53;30001;982;1880;-75
2021/10/05 01:05:20;;;;;;;;;;;;;;;10.69;95.58;96650.94;30001;982;1876;-74
2021/10/05 01:05:52;;;;;;;;;;;;;;;10.69;96.01;96650.94;30001;983;1880;-75
2021/10/05 01:06:22;;;;;;;;;;;;;;;10.71;95.93;96647.94;30001;983;1849;-75
2021/10/05 01:06:55;;;;;;;;;;;;;;;10.70;95.96;96636.28;30001;983;1880;-74
2021/10/05 01:07:26;;;;;;;;;;;;;;;10.70;96.13;96638.97;30001;983;1849;-75
2021/10/05 01:07:57;;;;;;;;;;;;;;;10.71;95.89;96634.38;30001;983;1854;-75
2021/10/05 01:08:30;;;;;;;;;;;;;;;10.72;96.22;96638.69;30001;983;1875;-75
2021/10/05 01:09:02;;;;;;;;;;;;;;;10.71;95.97;96627.03;30001;983;1880;-75
2021/10/05 01:09:34;;;;;;;;;;;;;;;10.71;96.01;96629.75;30001;983;1876;-75
2021/10/05 01:10:05;;;;;;;;;;;;;;;10.71;96.33;96629.75;30001;982;1880;-74
2021/10/05 01:10:36;;;;;;;;;;;;;;;10.73;96.04;96622.09;30001;982;1876;-74
2021/10/05 01:11:07;;;;;;;;;;;;;;;10.74;96.24;96623.69;30001;982;1881;-74
2021/10/05 01:11:38;;;;;;;;;;;;;;;10.74;96.23;96615.53;30001;982;1849;-74
2021/10/05 01:12:10;;;;;;;;;;;;;;;10.72;96.09;96612.34;30001;982;1880;-74
2021/10/05 01:12:40;;;;;;;;;;;;;;;10.70;95.76;96603.72;30001;983;1875;-74
2021/10/05 01:13:11;;;;;;;;;;;;;;;10.69;96.01;96607.53;30001;983;1880;-73
2021/10/05 01:13:42;;;;;;;;;;;;;;;10.70;95.91;96603.72;30001;983;1849;-75
2021/10/05 01:14:13;;;;;;;;;;;;;;;10.69;96.01;96596.66;30001;983;1880;-73
2021/10/05 01:14:44;;;;;;;;;;;;;;;10.67;95.88;96601.59;30001;983;1875;-74
2021/10/05 01:15:16;;;;;;;;;;;;;;;10.65;95.91;96606.50;30001;983;1880;-73
2021/10/05 01:15:47;;;;;;;;;;;;;;;10.63;95.71;96603.28;30001;983;1876;-74
2021/10/05 01:16:19;;;;;;;;;;;;;;;10.63;95.90;96597.88;30001;983;1880;-74
2021/10/05 01:16:52;;;;;;;;;;;;;;;10.64;95.67;96604.91;30001;985;1876;-73
2021/10/05 01:17:23;;;;;;;;;;;;;;;10.66;95.98;96608.13;30001;983;1880;-74
2021/10/05 01:17:54;;;;;;;;;;;;;;;10.66;95.68;96607.31;30001;974;1869;-74
2021/10/05 01:18:24;;;;;;;;;;;;;;;10.66;95.82;96607.31;30001;982;1880;-74
2021/10/05 01:18:55;;;;;;;;;;;;;;;10.67;95.95;96609.72;30001;982;1850;-72
2021/10/05 01:19:26;;;;;;;;;;;;;;;10.67;95.88;96604.31;30001;982;1880;-74
2021/10/05 01:19:57;;;;;;;;;;;;;;;10.67;95.55;96609.72;30001;982;1876;-72
2021/10/05 01:20:28;;;;;;;;;;;;;;;10.66;95.66;96608.13;30001;983;1880;-73
2021/10/05 01:21:05;;;;;;;;;;;;;;;10.65;95.60;96611.94;30001;983;1875;-73
2021/10/05 01:21:36;;;;;;;;;;;;;;;10.64;95.57;96607.63;30001;983;1880;-73
2021/10/05 01:22:07;;;;;;;;;;;;;;;10.66;95.38;96608.13;30001;968;1898;-74
2021/10/05 01:22:38;;;;;;;;;;;;;;;10.66;95.38;96607.31;30001;983;1880;-73
2021/10/05 01:23:09;;;;;;;;;;;;;;;10.67;95.33;96608.94;30001;983;1876;-74
2021/10/05 01:23:41;;;;;;;;;;;;;;;10.66;95.19;96604.59;30001;983;1854;-73
2021/10/05 01:24:14;;;;;;;;;;;;;;;10.68;95.30;96607.81;30001;983;1875;-72
2021/10/05 01:24:44;;;;;;;;;;;;;;;10.67;95.43;96604.31;30001;983;1880;-74
2021/10/05 01:25:16;;;;;;;;;;;;;;;10.68;95.24;96605.09;30001;982;1876;-74
2021/10/05 01:25:47;;;;;;;;;;;;;;;10.67;95.16;96604.31;30001;982;1880;-74
2021/10/05 01:26:17;;;;;;;;;;;;;;;10.66;95.51;96610.84;30001;982;1850;-74
2021/10/05 01:26:49;;;;;;;;;;;;;;;10.67;95.26;96609.72;30001;982;1880;-75
2021/10/05 01:27:20;;;;;;;;;;;;;;;10.68;95.28;96611.34;30001;982;1876;-75
2021/10/05 01:27:52;;;;;;;;;;;;;;;10.67;95.46;96607.03;30001;983;1879;-74
2021/10/05 01:28:24;;;;;;;;;;;;;;;10.69;95.21;96612.94;30001;983;1875;-74
2021/10/05 01:28:55;;;;;;;;;;;;;;;10.69;95.13;96610.25;30001;983;1853;-53
2021/10/05 01:29:27;;;;;;;;;;;;;;;10.68;94.94;96614.06;30001;983;1875;-73
2021/10/05 01:29:58;;;;;;;;;;;;;;;10.67;95.29;96609.72;30001;983;1880;-73
2021/10/05 01:30:29;;;;;;;;;;;;;;;10.67;95.18;96615.16;30001;983;1876;-74
2021/10/05 01:30:59;;;;;;;;;;;;;;;10.64;95.20;96602.19;30001;983;1880;-75
2021/10/05 01:31:31;;;;;;;;;;;;;;;10.62;95.06;96609.81;30001;983;1876;-73
2021/10/05 01:32:03;;;;;;;;;;;;;;;10.62;95.40;96607.09;30001;983;1880;-75
2021/10/05 01:32:34;;;;;;;;;;;;;;;10.62;95.44;96607.09;30001;983;1849;-73
2021/10/05 01:33:07;;;;;;;;;;;;;;;10.61;95.18;96600.06;30001;982;1880;-73
2021/10/05 01:33:38;;;;;;;;;;;;;;;10.63;95.14;96610.63;30001;982;1876;-74
2021/10/05 01:34:09;;;;;;;;;;;;;;;10.62;95.47;96603.59;30001;982;1880;-74
2021/10/05 01:34:40;;;;;;;;;;;;;;;10.61;95.43;96605.50;30001;982;1876;-74
2021/10/05 01:35:11;;;;;;;;;;;;;;;10.61;95.49;96599.25;30001;982;1880;-73
2021/10/05 01:35:42;;;;;;;;;;;;;;;10.61;95.30;96605.50;30001;983;1875;-73
2021/10/05 01:36:15;;;;;;;;;;;;;;;10.61;95.53;96605.50;30001;983;1880;-74
2021/10/05 01:36:46;;;;;;;;;;;;;;;10.61;95.36;96607.41;30001;983;1875;-73
2021/10/05 01:37:17;;;;;;;;;;;;;;;10.62;95.59;96598.97;30001;983;1880;-73
2021/10/05 01:37:48;;;;;;;;;;;;;;;10.62;95.75;96598.97;30001;983;1849;-73
2021/10/05 01:38:19;;;;;;;;;;;;;;;10.62;95.54;96603.59;30001;983;1880;-74
2021/10/05 01:38:50;;;;;;;;;;;;;;;10.61;95.46;96604.69;30001;983;1876;-72
2021/10/05 01:39:22;;;;;;;;;;;;;;;10.60;95.72;96603.88;30001;983;1880;-74
2021/10/05 01:39:53;;;;;;;;;;;;;;;10.60;95.45;96603.88;30001;983;1876;-53
2021/10/05 01:40:24;;;;;;;;;;;;;;;10.58;95.73;96595.25;30001;982;1880;-73
2021/10/05 01:40:55;;;;;;;;;;;;;;;10.59;95.42;96594.13;30001;982;1876;-73
2021/10/05 01:41:26;;;;;;;;;;;;;;;10.58;95.71;96594.44;30001;982;1880;-73
2021/10/05 01:42:08;;;;;;;;;;;;;;;10.59;95.52;96591.44;30001;982;1876;-73
2021/10/05 01:42:42;;;;;;;;;;;;;;;10.60;95.49;96586.81;30001;986;1849;-73
2021/10/05 01:43:13;;;;;;;;;;;;;;;10.60;95.82;96589.53;30001;983;1884;-73
2021/10/05 01:43:45;;;;;;;;;;;;;;;10.59;95.87;96594.13;30001;983;1879;-74
2021/10/05 01:44:16;;;;;;;;;;;;;;;10.58;95.84;96595.25;30001;983;1858;-73
2021/10/05 01:44:48;;;;;;;;;;;;;;;10.57;95.62;96585.50;30001;983;1880;-73
2021/10/05 01:45:19;;;;;;;;;;;;;;;10.59;95.52;96587.91;30001;983;1884;-73
2021/10/05 01:45:49;;;;;;;;;;;;;;;10.59;95.52;96590.62;30001;983;1880;-73
2021/10/05 01:46:20;;;;;;;;;;;;;;;10.58;95.40;96587.09;30001;983;1884;-73
2021/10/05 01:46:51;;;;;;;;;;;;;;;10.60;95.67;96589.53;30001;983;1880;-73
2021/10/05 01:47:22;;;;;;;;;;;;;;;10.60;95.58;96587.59;30001;982;1884;-73
2021/10/05 01:47:53;;;;;;;;;;;;;;;10.60;95.46;96586.81;30001;982;1880;-72
2021/10/05 01:48:24;;;;;;;;;;;;;;;10.60;95.65;96584.91;30001;982;1885;-73
2021/10/05 01:48:54;;;;;;;;;;;;;;;10.60;95.67;96582.19;30001;982;1880;-73
2021/10/05 01:49:25;;;;;;;;;;;;;;;10.62;95.89;96585.41;30001;982;1858;-73
2021/10/05 01:49:57;;;;;;;;;;;;;;;10.61;95.74;96583.78;30001;982;1881;-73
2021/10/05 01:50:28;;;;;;;;;;;;;;;10.62;95.39;96585.41;30001;983;1884;-72
2021/10/05 01:50:58;;;;;;;;;;;;;;;10.63;95.78;96588.91;30001;983;1880;-72
2021/10/05 01:51:29;;;;;;;;;;;;;;;10.63;95.86;96592.44;30001;983;1884;-74
2021/10/05 01:52:00;;;;;;;;;;;;;;;10.63;95.88;96589.72;30001;983;1880;-73
2021/10/05 01:52:31;;;;;;;;;;;;;;;10.61;95.72;96589.22;30001;983;1858;-72
2021/10/05 01:53:02;;;;;;;;;;;;;;;10.61;95.75;96586.50;30001;983;1880;-73
2021/10/05 01:53:33;;;;;;;;;;;;;;;10.61;95.48;96593.84;30001;983;1858;-72
2021/10/05 01:54:04;;;;;;;;;;;;;;;10.60;95.71;96590.31;30001;983;1880;-74
2021/10/05 01:54:35;;;;;;;;;;;;;;;10.60;95.45;96593.03;30001;982;1884;-73
2021/10/05 01:55:08;;;;;;;;;;;;;;;10.60;95.64;96603.88;30001;982;1880;-73
2021/10/05 01:55:39;;;;;;;;;;;;;;;10.61;95.46;96593.84;30001;982;1885;-73
2021/10/05 01:56:10;;;;;;;;;;;;;;;10.61;95.53;96599.25;30001;982;1880;-74
2021/10/05 01:56:41;;;;;;;;;;;;;;;10.61;95.74;96604.69;30001;982;1885;-73
2021/10/05 01:57:13;;;;;;;;;;;;;;;10.60;95.53;96601.19;30001;982;1880;-74
2021/10/05 01:57:44;;;;;;;;;;;;;;;10.62;95.68;96601.69;30001;982;1859;-73
2021/10/05 01:58:14;;;;;;;;;;;;;;;10.61;95.67;96608.22;30001;983;1853;-74
2021/10/05 01:58:46;;;;;;;;;;;;;;;10.61;95.44;96605.50;30001;983;1884;-74
2021/10/05 01:59:18;;;;;;;;;;;;;;;10.61;95.44;96610.94;30001;983;1853;-74
2021/10/05 01:59:48;;;;;;;;;;;;;;;10.62;95.46;96617.16;30001;983;1884;-74
2021/10/05 02:00:19;;;;;;;;;;;;;;;10.61;95.72;96610.94;30001;983;1880;-74
2021/10/05 02:00:50;;;;;;;;;;;;;;;10.61;95.56;96616.34;30001;983;1884;-75
2021/10/05 02:01:21;;;;;;;;;;;;;;;10.61;95.75;96616.34;30001;983;1880;-74
2021/10/05 02:01:52;;;;;;;;;;;;;;;10.62;95.51;96615.25;30001;983;1884;-74
2021/10/05 02:02:23;;;;;;;;;;;;;;;10.61;95.58;96621.78;30001;982;1854;-74
2021/10/05 02:02:54;;;;;;;;;;;;;;;10.61;95.46;96615.53;30001;982;1885;-74
2021/10/05 02:03:26;;;;;;;;;;;;;;;10.60;95.79;96614.75;30001;982;1880;-74
2021/10/05 02:03:57;;;;;;;;;;;;;;;10.61;95.91;96610.94;30001;982;1884;-73
2021/10/05 02:04:27;;;;;;;;;;;;;;;10.61;95.89;96610.94;30001;982;1880;-74
2021/10/05 02:04:58;;;;;;;;;;;;;;;10.61;95.55;96616.34;30001;982;1885;-74
2021/10/05 02:05:29;;;;;;;;;;;;;;;10.61;95.90;96605.50;30001;983;1880;-74
2021/10/05 02:06:01;;;;;;;;;;;;;;;10.62;95.94;96607.09;30001;983;1759;-74
2021/10/05 02:06:31;;;;;;;;;;;;;;;10.61;95.85;96602.78;30001;983;1880;-74
2021/10/05 02:07:03;;;;;;;;;;;;;;;10.62;95.75;96598.97;30001;983;1884;-74
2021/10/05 02:07:37;;;;;;;;;;;;;;;10.62;95.70;96606.31;30001;983;1880;-73
2021/10/05 02:08:09;;;;;;;;;;;;;;;10.63;95.50;96600.59;30001;983;1884;-74
2021/10/05 02:08:40;;;;;;;;;;;;;;;10.61;95.79;96600.06;30001;983;1880;-74
2021/10/05 02:09:12;;;;;;;;;;;;;;;10.62;95.54;96596.25;30001;983;1884;-74
2021/10/05 02:09:47;;;;;;;;;;;;;;;10.62;96.03;96596.25;30001;982;1880;-74
2021/10/05 02:10:18;;;;;;;;;;;;;;;10.62;95.80;96596.25;30001;982;1885;-73
2021/10/05 02:10:49;;;;;;;;;;;;;;;10.61;96.03;96596.56;30001;982;1880;-74
2021/10/05 02:11:20;;;;;;;;;;;;;;;10.61;95.72;96588.41;30001;982;1858;-74
2021/10/05 02:11:51;;;;;;;;;;;;;;;10.60;95.93;96603.88;30001;982;1880;-74
2021/10/05 02:12:21;;;;;;;;;;;;;;;10.60;95.67;96586.81;30001;982;1885;-74
2021/10/05 02:12:52;;;;;;;;;;;;;;;10.59;95.69;96588.72;30001;982;1880;-73
2021/10/05 02:13:23;;;;;;;;;;;;;;;10.60;95.91;96587.59;30001;983;1884;-74
2021/10/05 02:13:55;;;;;;;;;;;;;;;10.60;95.89;96584.91;30001;983;1880;-72
2021/10/05 02:14:25;;;;;;;;;;;;;;;10.60;95.75;96590.31;30001;983;1884;-73
2021/10/05 02:14:56;;;;;;;;;;;;;;;10.58;96.09;96584.38;30001;983;1880;-72
2021/10/05 02:15:27;;;;;;;;;;;;;;;10.58;95.96;96583.59;30001;983;1858;-72
2021/10/05 02:15:58;;;;;;;;;;;;;;;10.58;96.23;96589.81;30001;983;1880;-71
2021/10/05 02:16:29;;;;;;;;;;;;;;;10.57;96.01;96580.06;30001;983;1884;-72
2021/10/05 02:17:00;;;;;;;;;;;;;;;10.58;96.18;96583.59;30001;983;1880;-73
2021/10/05 02:17:31;;;;;;;;;;;;;;;10.57;95.82;96576.56;30001;982;1885;-53
2021/10/05 02:18:03;;;;;;;;;;;;;;;10.56;96.15;96575.75;30001;982;1881;-53
2021/10/05 02:18:34;;;;;;;;;;;;;;;10.57;96.08;96581.97;30001;982;1859;-71
2021/10/05 02:19:06;;;;;;;;;;;;;;;10.56;96.10;96580.38;30001;982;1881;-71
2021/10/05 02:19:38;;;;;;;;;;;;;;;10.55;95.81;96574.13;30001;982;1885;-72
2021/10/05 02:20:10;;;;;;;;;;;;;;;10.55;96.00;96574.13;30001;983;1879;-71
2021/10/05 02:20:41;;;;;;;;;;;;;;;10.54;95.67;96575.25;30001;983;1884;-72
2021/10/05 02:21:12;;;;;;;;;;;;;;;10.52;96.04;96569.31;30001;983;1880;-71
2021/10/05 02:21:43;;;;;;;;;;;;;;;10.52;95.79;96573.94;30001;983;1858;-71
2021/10/05 02:22:14;;;;;;;;;;;;;;;10.52;95.99;96569.31;30001;983;1854;-71
2021/10/05 02:22:45;;;;;;;;;;;;;;;10.51;95.75;96567.69;30001;983;1884;-72
2021/10/05 02:23:16;;;;;;;;;;;;;;;10.52;95.71;96571.22;30001;983;1880;-71
2021/10/05 02:24:43;;;;;;;;;;;;;;;10.52;96.05;96579.34;30001;983;1880;-72
2021/10/05 02:25:14;;;;;;;;;;;;;;;10.50;95.81;96570.72;30001;982;1884;-71
2021/10/05 02:25:45;;;;;;;;;;;;;;;10.50;96.12;96576.94;30001;982;1880;-71
2021/10/05 02:26:16;;;;;;;;;;;;;;;10.49;96.12;96567.19;30001;982;1885;-71
2021/10/05 02:26:48;;;;;;;;;;;;;;;10.49;96.11;96575.34;30001;982;1854;-71
2021/10/05 02:27:20;;;;;;;;;;;;;;;10.49;95.80;96572.63;30001;983;1884;-71
2021/10/05 02:27:51;;;;;;;;;;;;;;;10.49;96.15;96567.19;30001;983;1880;-72
2021/10/05 02:28:22;;;;;;;;;;;;;;;10.48;95.83;96567.50;30001;983;1884;-72
2021/10/05 02:28:53;;;;;;;;;;;;;;;10.47;96.09;96568.59;30001;983;1880;-72
2021/10/05 02:29:24;;;;;;;;;;;;;;;10.48;96.13;96568.28;30001;983;1884;-72
2021/10/05 02:29:55;;;;;;;;;;;;;;;10.48;96.17;96573.72;30001;983;1880;-71
2021/10/05 02:30:25;;;;;;;;;;;;;;;10.49;95.84;96569.09;30001;983;1884;-73
2021/10/05 02:30:57;;;;;;;;;;;;;;;10.47;96.16;96569.41;30001;983;1880;-72
2021/10/05 02:31:28;;;;;;;;;;;;;;;10.48;96.18;96568.28;30001;983;1858;-72
2021/10/05 02:31:59;;;;;;;;;;;;;;;10.48;96.27;96568.28;30001;983;1880;-54
2021/10/05 02:32:30;;;;;;;;;;;;;;;10.48;95.89;96572.91;30001;982;1885;-72
2021/10/05 02:33:00;;;;;;;;;;;;;;;10.47;96.08;96563.97;30001;982;1880;-72
2021/10/05 02:33:31;;;;;;;;;;;;;;;10.48;95.77;96564.78;30001;982;1885;-71
2021/10/05 02:34:03;;;;;;;;;;;;;;;10.47;96.09;96558.56;30001;982;1880;-71
2021/10/05 02:34:34;;;;;;;;;;;;;;;10.47;96.14;96561.25;30001;982;1885;-71
2021/10/05 02:35:05;;;;;;;;;;;;;;;10.46;96.11;96554.22;30001;983;1880;-71
2021/10/05 02:35:36;;;;;;;;;;;;;;;10.47;96.01;96560.47;30001;983;1884;-70
2021/10/05 02:36:07;;;;;;;;;;;;;;;10.46;96.11;96558.84;30001;983;1879;-71
2021/10/05 02:36:38;;;;;;;;;;;;;;;10.45;96.03;96555.31;30001;983;1858;-71
2021/10/05 02:37:10;;;;;;;;;;;;;;;10.45;96.23;96557.25;30001;983;1880;-72
2021/10/05 02:37:41;;;;;;;;;;;;;;;10.45;96.06;96549.09;30001;983;1884;-71
2021/10/05 02:38:11;;;;;;;;;;;;;;;10.45;96.04;96552.62;30001;986;1872;-71
2021/10/05 02:38:42;;;;;;;;;;;;;;;10.45;95.75;96555.31;30001;983;1884;-71
2021/10/05 02:39:13;;;;;;;;;;;;;;;10.44;96.03;96550.19;30001;983;1880;-71
2021/10/05 02:39:44;;;;;;;;;;;;;;;10.44;95.92;96552.91;30001;983;1884;-71
2021/10/05 02:40:15;;;;;;;;;;;;;;;10.44;96.12;96551.00;30001;982;1854;-70
2021/10/05 02:40:46;;;;;;;;;;;;;;;10.44;95.79;96556.44;30001;982;1885;-71
2021/10/05 02:41:17;;;;;;;;;;;;;;;10.44;96.00;96550.19;30001;982;1880;-52
2021/10/05 02:41:48;;;;;;;;;;;;;;;10.45;95.90;96555.31;30001;982;1885;-53
2021/10/05 02:42:19;;;;;;;;;;;;;;;10.45;96.14;96551.81;30001;983;1880;-53
2021/10/05 02:42:50;;;;;;;;;;;;;;;10.47;96.08;96555.03;30001;983;1857;-70
2021/10/05 02:43:21;;;;;;;;;;;;;;;10.47;95.92;96555.03;30001;983;1879;-71
2021/10/05 02:43:52;;;;;;;;;;;;;;;10.47;96.13;96555.84;30001;983;1884;-70
2021/10/05 02:44:22;;;;;;;;;;;;;;;10.47;96.24;96555.03;30001;983;1880;-71
2021/10/05 02:44:54;;;;;;;;;;;;;;;10.44;96.18;96556.44;30001;983;1858;-71
2021/10/05 02:45:25;;;;;;;;;;;;;;;10.45;95.93;96552.62;30001;983;1880;-72
2021/10/05 02:45:56;;;;;;;;;;;;;;;10.45;96.17;96558.03;30001;983;1884;-71
2021/10/05 02:46:27;;;;;;;;;;;;;;;10.45;96.11;96552.62;30001;983;1880;-71
2021/10/05 02:46:58;;;;;;;;;;;;;;;10.47;95.91;96550.41;30001;983;1884;-71
2021/10/05 02:47:28;;;;;;;;;;;;;;;10.48;95.85;96551.22;30001;982;1880;-71